sensor_id;sensor_type;location;lat;lon;timestamp;pressure;altitude;pressure_sealevel;temperature;humidity
65659;BME280;60181;53.258;6.932;2023-10-09T00:00:39;102116.03;;;17.97;68.59
65659;BME280;60181;53.258;6.932;2023-10-09T00:04:59;102109.31;;;17.97;69.07
65659;BME280;60181;53.258;6.932;2023-10-09T00:09:19;102102.80;;;17.97;68.98
65659;BME280;60181;53.258;6.932;2023-10-09T00:13:47;102100.83;;;17.98;69.06
65659;BME280;60181;53.258;6.932;2023-10-09T00:17:59;102093.13;;;17.98;69.04
65659;BME280;60181;53.258;6.932;2023-10-09T00:22:19;102087.90;;;17.98;68.97
65659;BME280;60181;53.258;6.932;2023-10-09T00:26:45;102084.83;;;17.98;68.90
65659;BME280;60181;53.258;6.932;2023-10-09T00:30:59;102076.87;;;17.98;68.96
65659;BME280;60181;53.258;6.932;2023-10-09T00:35:19;102066.82;;;17.97;69.05
65659;BME280;60181;53.258;6.932;2023-10-09T00:39:39;102059.69;;;17.97;68.93
65659;BME280;60181;53.258;6.932;2023-10-09T00:43:59;102053.06;;;17.97;69.41
65659;BME280;60181;53.258;6.932;2023-10-09T00:48:19;102048.03;;;17.98;68.80
65659;BME280;60181;53.258;6.932;2023-10-09T00:52:39;102040.23;;;17.98;69.09
65659;BME280;60181;53.258;6.932;2023-10-09T00:56:59;102032.93;;;17.98;69.13
65659;BME280;60181;53.258;6.932;2023-10-09T01:01:19;102022.94;;;17.97;68.89
65659;BME280;60181;53.258;6.932;2023-10-09T01:05:39;102013.73;;;17.97;68.89
65659;BME280;60181;53.258;6.932;2023-10-09T01:09:59;102004.88;;;17.97;68.71
65659;BME280;60181;53.258;6.932;2023-10-09T01:14:19;101997.72;;;17.96;68.76
65659;BME280;60181;53.258;6.932;2023-10-09T01:18:39;101993.33;;;17.96;68.71
65659;BME280;60181;53.258;6.932;2023-10-09T01:23:02;101989.34;;;17.96;68.54
65659;BME280;60181;53.258;6.932;2023-10-09T01:27:19;101986.69;;;17.96;68.67
65659;BME280;60181;53.258;6.932;2023-10-09T01:31:39;101981.98;;;17.96;68.61
65659;BME280;60181;53.258;6.932;2023-10-09T01:35:58;101977.09;;;17.95;68.83
65659;BME280;60181;53.258;6.932;2023-10-09T01:40:18;101970.37;;;17.96;68.94
65659;BME280;60181;53.258;6.932;2023-10-09T01:44:39;101965.06;;;17.96;68.66
65659;BME280;60181;53.258;6.932;2023-10-09T01:48:58;101959.92;;;17.96;68.71
65659;BME280;60181;53.258;6.932;2023-10-09T01:53:19;101953.30;;;17.96;68.99
65659;BME280;60181;53.258;6.932;2023-10-09T01:57:38;101947.66;;;17.96;69.06
65659;BME280;60181;53.258;6.932;2023-10-09T02:01:58;101940.96;;;17.97;69.04
65659;BME280;60181;53.258;6.932;2023-10-09T02:06:18;101934.52;;;17.97;68.98
65659;BME280;60181;53.258;6.932;2023-10-09T02:10:38;101928.22;;;17.97;69.18
65659;BME280;60181;53.258;6.932;2023-10-09T02:14:59;101922.30;;;17.97;69.19
65659;BME280;60181;53.258;6.932;2023-10-09T02:19:18;101915.77;;;17.97;69.25
65659;BME280;60181;53.258;6.932;2023-10-09T02:23:39;101905.74;;;17.97;69.31
65659;BME280;60181;53.258;6.932;2023-10-09T02:27:58;101898.36;;;17.97;69.39
65659;BME280;60181;53.258;6.932;2023-10-09T02:32:18;101892.55;;;17.97;69.59
65659;BME280;60181;53.258;6.932;2023-10-09T02:36:38;101886.28;;;17.97;69.38
65659;BME280;60181;53.258;6.932;2023-10-09T02:40:58;101879.32;;;17.97;69.61
65659;BME280;60181;53.258;6.932;2023-10-09T02:45:18;101870.09;;;17.97;69.52
65659;BME280;60181;53.258;6.932;2023-10-09T02:49:38;101861.47;;;17.97;69.76
65659;BME280;60181;53.258;6.932;2023-10-09T02:53:59;101851.84;;;17.97;70.02
65659;BME280;60181;53.258;6.932;2023-10-09T02:58:18;101841.80;;;17.98;69.72
65659;BME280;60181;53.258;6.932;2023-10-09T03:02:38;101833.84;;;17.98;69.84
65659;BME280;60181;53.258;6.932;2023-10-09T03:06:59;101828.75;;;17.97;69.90
65659;BME280;60181;53.258;6.932;2023-10-09T03:11:18;101825.41;;;17.97;69.99
65659;BME280;60181;53.258;6.932;2023-10-09T03:15:38;101823.51;;;17.97;69.95
65659;BME280;60181;53.258;6.932;2023-10-09T03:19:58;101823.11;;;17.97;70.50
65659;BME280;60181;53.258;6.932;2023-10-09T03:24:18;101821.62;;;17.97;70.01
65659;BME280;60181;53.258;6.932;2023-10-09T03:28:38;101818.67;;;17.96;70.01
65659;BME280;60181;53.258;6.932;2023-10-09T03:32:58;101816.67;;;17.94;70.09
65659;BME280;60181;53.258;6.932;2023-10-09T03:37:18;101815.09;;;17.93;70.14
65659;BME280;60181;53.258;6.932;2023-10-09T03:41:38;101813.25;;;17.92;70.30
65659;BME280;60181;53.258;6.932;2023-10-09T03:45:58;101812.16;;;17.93;70.96
65659;BME280;60181;53.258;6.932;2023-10-09T03:50:18;101810.85;;;17.94;70.77
65659;BME280;60181;53.258;6.932;2023-10-09T03:54:38;101812.28;;;17.95;71.38
65659;BME280;60181;53.258;6.932;2023-10-09T03:58:58;101813.02;;;17.95;71.62
65659;BME280;60181;53.258;6.932;2023-10-09T04:03:18;101811.53;;;17.95;71.53
65659;BME280;60181;53.258;6.932;2023-10-09T04:07:38;101810.13;;;17.95;71.72
65659;BME280;60181;53.258;6.932;2023-10-09T04:11:58;101811.38;;;17.94;71.58
65659;BME280;60181;53.258;6.932;2023-10-09T04:16:19;101812.45;;;17.94;71.80
65659;BME280;60181;53.258;6.932;2023-10-09T04:20:38;101813.67;;;17.94;71.76
65659;BME280;60181;53.258;6.932;2023-10-09T04:24:58;101815.50;;;17.93;71.74
65659;BME280;60181;53.258;6.932;2023-10-09T04:29:18;101815.26;;;17.93;71.60
65659;BME280;60181;53.258;6.932;2023-10-09T04:33:38;101815.06;;;17.93;71.60
65659;BME280;60181;53.258;6.932;2023-10-09T04:37:58;101813.09;;;17.92;71.58
65659;BME280;60181;53.258;6.932;2023-10-09T04:42:18;101808.00;;;17.92;71.72
65659;BME280;60181;53.258;6.932;2023-10-09T04:46:38;101800.22;;;17.91;71.80
65659;BME280;60181;53.258;6.932;2023-10-09T04:50:59;101794.83;;;17.91;71.66
65659;BME280;60181;53.258;6.932;2023-10-09T04:55:18;101784.98;;;17.91;71.92
65659;BME280;60181;53.258;6.932;2023-10-09T04:59:38;101780.91;;;17.91;72.37
65659;BME280;60181;53.258;6.932;2023-10-09T05:03:58;101777.83;;;17.92;73.66
65659;BME280;60181;53.258;6.932;2023-10-09T05:08:18;101777.52;;;17.92;72.37
65659;BME280;60181;53.258;6.932;2023-10-09T05:12:38;101775.28;;;17.93;72.01
65659;BME280;60181;53.258;6.932;2023-10-09T05:16:58;101773.49;;;17.93;72.19
65659;BME280;60181;53.258;6.932;2023-10-09T05:21:18;101770.90;;;17.93;72.00
65659;BME280;60181;53.258;6.932;2023-10-09T05:25:38;101767.75;;;17.94;71.88
65659;BME280;60181;53.258;6.932;2023-10-09T05:29:58;101770.59;;;17.94;71.99
65659;BME280;60181;53.258;6.932;2023-10-09T05:34:18;101773.66;;;17.95;72.13
65659;BME280;60181;53.258;6.932;2023-10-09T05:38:38;101776.39;;;17.95;72.21
65659;BME280;60181;53.258;6.932;2023-10-09T05:42:58;101779.32;;;17.95;72.29
65659;BME280;60181;53.258;6.932;2023-10-09T05:47:18;101780.22;;;17.96;73.20
65659;BME280;60181;53.258;6.932;2023-10-09T05:51:38;101782.78;;;17.95;72.87
65659;BME280;60181;53.258;6.932;2023-10-09T05:55:58;101787.42;;;17.94;72.71
65659;BME280;60181;53.258;6.932;2023-10-09T06:00:18;101791.38;;;17.94;72.77
65659;BME280;60181;53.258;6.932;2023-10-09T06:04:38;101793.87;;;17.93;72.65
65659;BME280;60181;53.258;6.932;2023-10-09T06:09:02;101793.43;;;17.93;72.50
65659;BME280;60181;53.258;6.932;2023-10-09T06:13:18;101795.42;;;17.93;72.37
65659;BME280;60181;53.258;6.932;2023-10-09T06:17:38;101799.51;;;17.93;72.81
65659;BME280;60181;53.258;6.932;2023-10-09T06:21:58;101804.86;;;17.93;72.55
65659;BME280;60181;53.258;6.932;2023-10-09T06:26:18;101807.93;;;17.93;72.47
65659;BME280;60181;53.258;6.932;2023-10-09T06:30:38;101810.27;;;17.92;72.56
65659;BME280;60181;53.258;6.932;2023-10-09T06:35:00;101810.74;;;17.92;72.49
65659;BME280;60181;53.258;6.932;2023-10-09T06:39:18;101809.16;;;17.92;72.52
65659;BME280;60181;53.258;6.932;2023-10-09T06:43:38;101809.01;;;17.92;72.49
65659;BME280;60181;53.258;6.932;2023-10-09T06:47:58;101809.01;;;17.92;72.56
65659;BME280;60181;53.258;6.932;2023-10-09T06:52:18;101810.27;;;17.92;72.49
65659;BME280;60181;53.258;6.932;2023-10-09T06:56:38;101812.73;;;17.92;72.44
65659;BME280;60181;53.258;6.932;2023-10-09T07:00:58;101815.80;;;17.91;72.41
65659;BME280;60181;53.258;6.932;2023-10-09T07:05:18;101820.28;;;17.91;72.39
65659;BME280;60181;53.258;6.932;2023-10-09T07:09:38;101822.93;;;17.91;72.32
65659;BME280;60181;53.258;6.932;2023-10-09T07:13:58;101825.42;;;17.91;72.33
65659;BME280;60181;53.258;6.932;2023-10-09T07:18:18;101827.08;;;17.91;72.28
65659;BME280;60181;53.258;6.932;2023-10-09T07:22:38;101827.48;;;17.91;72.24
65659;BME280;60181;53.258;6.932;2023-10-09T07:26:58;101827.90;;;17.91;72.23
65659;BME280;60181;53.258;6.932;2023-10-09T07:31:19;101827.90;;;17.91;72.19
65659;BME280;60181;53.258;6.932;2023-10-09T07:35:42;101826.90;;;17.91;72.16
65659;BME280;60181;53.258;6.932;2023-10-09T07:39:58;101825.66;;;17.92;72.14
65659;BME280;60181;53.258;6.932;2023-10-09T07:44:18;101826.23;;;17.92;72.11
65659;BME280;60181;53.258;6.932;2023-10-09T07:48:38;101828.72;;;17.92;72.08
65659;BME280;60181;53.258;6.932;2023-10-09T07:52:58;101829.99;;;17.92;72.06
65659;BME280;60181;53.258;6.932;2023-10-09T07:57:19;101832.06;;;17.92;72.04
65659;BME280;60181;53.258;6.932;2023-10-09T08:01:41;101833.37;;;17.93;72.39
65659;BME280;60181;53.258;6.932;2023-10-09T08:05:58;101834.39;;;17.94;72.33
65659;BME280;60181;53.258;6.932;2023-10-09T08:10:18;101836.24;;;17.94;72.02
65659;BME280;60181;53.258;6.932;2023-10-09T08:14:38;101839.87;;;17.95;72.13
65659;BME280;60181;53.258;6.932;2023-10-09T08:18:58;101845.29;;;17.95;72.09
65659;BME280;60181;53.258;6.932;2023-10-09T08:23:18;101849.35;;;17.96;72.10
65659;BME280;60181;53.258;6.932;2023-10-09T08:27:38;101851.67;;;17.96;72.10
65659;BME280;60181;53.258;6.932;2023-10-09T08:31:58;101854.49;;;17.96;72.00
65659;BME280;60181;53.258;6.932;2023-10-09T08:36:18;101856.55;;;17.96;71.97
65659;BME280;60181;53.258;6.932;2023-10-09T08:40:39;101859.80;;;17.97;71.92
65659;BME280;60181;53.258;6.932;2023-10-09T08:44:58;101862.68;;;17.98;71.85
65659;BME280;60181;53.258;6.932;2023-10-09T08:49:18;101864.33;;;17.98;71.85
65659;BME280;60181;53.258;6.932;2023-10-09T08:53:38;101866.56;;;17.98;71.85
65659;BME280;60181;53.258;6.932;2023-10-09T08:57:58;101868.17;;;17.99;71.92
65659;BME280;60181;53.258;6.932;2023-10-09T09:02:18;101870.57;;;17.99;71.86
65659;BME280;60181;53.258;6.932;2023-10-09T09:06:38;101873.72;;;17.99;71.87
65659;BME280;60181;53.258;6.932;2023-10-09T09:15:18;101872.97;;;17.99;71.79
65659;BME280;60181;53.258;6.932;2023-10-09T09:19:38;101872.96;;;18.00;71.81
65659;BME280;60181;53.258;6.932;2023-10-09T09:23:59;101872.90;;;18.00;71.74
65659;BME280;60181;53.258;6.932;2023-10-09T09:28:18;101870.68;;;18.01;71.66
65659;BME280;60181;53.258;6.932;2023-10-09T09:32:38;101871.44;;;18.03;71.63
65659;BME280;60181;53.258;6.932;2023-10-09T09:36:58;101873.46;;;18.04;71.77
65659;BME280;60181;53.258;6.932;2023-10-09T09:41:18;101873.39;;;18.04;71.73
65659;BME280;60181;53.258;6.932;2023-10-09T09:45:38;101873.64;;;18.06;71.66
65659;BME280;60181;53.258;6.932;2023-10-09T09:49:58;101875.71;;;18.06;71.69
65659;BME280;60181;53.258;6.932;2023-10-09T09:54:18;101878.97;;;18.07;71.71
65659;BME280;60181;53.258;6.932;2023-10-09T09:58:38;101883.36;;;18.07;71.72
65659;BME280;60181;53.258;6.932;2023-10-09T10:03:01;101887.67;;;18.07;71.67
65659;BME280;60181;53.258;6.932;2023-10-09T10:07:18;101890.16;;;18.07;71.70
65659;BME280;60181;53.258;6.932;2023-10-09T10:11:44;101892.15;;;18.07;71.68
65659;BME280;60181;53.258;6.932;2023-10-09T10:15:58;101895.29;;;18.07;71.74
65659;BME280;60181;53.258;6.932;2023-10-09T10:20:18;101896.71;;;18.07;71.75
65659;BME280;60181;53.258;6.932;2023-10-09T10:24:41;101898.21;;;18.07;71.69
65659;BME280;60181;53.258;6.932;2023-10-09T10:29:16;101899.58;;;18.06;71.79
65659;BME280;60181;53.258;6.932;2023-10-09T10:33:18;101902.15;;;18.06;71.75
65659;BME280;60181;53.258;6.932;2023-10-09T10:37:38;101904.16;;;18.06;71.79
65659;BME280;60181;53.258;6.932;2023-10-09T10:41:58;101907.28;;;18.05;71.85
65659;BME280;60181;53.258;6.932;2023-10-09T10:46:21;101911.25;;;18.05;71.84
65659;BME280;60181;53.258;6.932;2023-10-09T10:50:38;101916.67;;;18.05;71.78
65659;BME280;60181;53.258;6.932;2023-10-09T10:59:18;101926.47;;;18.07;71.73
65659;BME280;60181;53.258;6.932;2023-10-09T11:03:38;101929.72;;;18.08;71.66
65659;BME280;60181;53.258;6.932;2023-10-09T11:07:58;101934.22;;;18.09;71.67
65659;BME280;60181;53.258;6.932;2023-10-09T11:12:18;101938.68;;;18.10;71.61
65659;BME280;60181;53.258;6.932;2023-10-09T11:16:38;101942.63;;;18.11;71.67
65659;BME280;60181;53.258;6.932;2023-10-09T11:20:58;101944.30;;;18.12;71.64
65659;BME280;60181;53.258;6.932;2023-10-09T11:25:18;101945.89;;;18.13;71.64
65659;BME280;60181;53.258;6.932;2023-10-09T11:29:48;101947.23;;;18.15;71.97
65659;BME280;60181;53.258;6.932;2023-10-09T11:33:58;101948.18;;;18.17;72.95
65659;BME280;60181;53.258;6.932;2023-10-09T11:38:18;101949.61;;;18.20;72.93
65659;BME280;60181;53.258;6.932;2023-10-09T11:42:38;101950.22;;;18.22;73.01
65659;BME280;60181;53.258;6.932;2023-10-09T11:46:58;101950.95;;;18.24;72.94
65659;BME280;60181;53.258;6.932;2023-10-09T11:51:19;101951.64;;;18.27;73.03
65659;BME280;60181;53.258;6.932;2023-10-09T11:55:38;101950.22;;;18.27;73.18
65659;BME280;60181;53.258;6.932;2023-10-09T11:59:58;101948.00;;;18.29;73.07
65659;BME280;60181;53.258;6.932;2023-10-09T12:04:18;101947.96;;;18.30;73.17
65659;BME280;60181;53.258;6.932;2023-10-09T12:08:38;101947.29;;;18.30;73.23
65659;BME280;60181;53.258;6.932;2023-10-09T12:12:58;101948.69;;;18.31;73.32
65659;BME280;60181;53.258;6.932;2023-10-09T12:17:18;101947.63;;;18.30;73.36
65659;BME280;60181;53.258;6.932;2023-10-09T12:21:38;101944.89;;;18.31;73.40
65659;BME280;60181;53.258;6.932;2023-10-09T12:25:58;101940.92;;;18.31;73.22
65659;BME280;60181;53.258;6.932;2023-10-09T12:30:18;101937.95;;;18.32;73.56
65659;BME280;60181;53.258;6.932;2023-10-09T12:34:38;101935.79;;;18.33;73.56
65659;BME280;60181;53.258;6.932;2023-10-09T12:38:58;101934.88;;;18.33;73.65
65659;BME280;60181;53.258;6.932;2023-10-09T12:43:18;101934.33;;;18.33;73.67
65659;BME280;60181;53.258;6.932;2023-10-09T12:47:38;101934.82;;;18.33;73.53
65659;BME280;60181;53.258;6.932;2023-10-09T12:51:58;101933.65;;;18.33;73.64
65659;BME280;60181;53.258;6.932;2023-10-09T12:56:18;101931.58;;;18.34;73.68
65659;BME280;60181;53.258;6.932;2023-10-09T13:00:38;101930.35;;;18.33;73.53
65659;BME280;60181;53.258;6.932;2023-10-09T13:04:58;101928.83;;;18.33;73.61
65659;BME280;60181;53.258;6.932;2023-10-09T13:09:18;101929.05;;;18.32;73.83
65659;BME280;60181;53.258;6.932;2023-10-09T13:13:39;101930.47;;;18.31;73.79
65659;BME280;60181;53.258;6.932;2023-10-09T13:17:58;101932.03;;;18.30;73.75
65659;BME280;60181;53.258;6.932;2023-10-09T13:22:18;101934.25;;;18.30;73.65
65659;BME280;60181;53.258;6.932;2023-10-09T13:26:38;101936.83;;;18.29;73.46
65659;BME280;60181;53.258;6.932;2023-10-09T13:30:58;101939.70;;;18.29;73.39
65659;BME280;60181;53.258;6.932;2023-10-09T13:35:18;101941.96;;;18.28;73.29
65659;BME280;60181;53.258;6.932;2023-10-09T13:39:38;101945.42;;;18.27;73.26
65659;BME280;60181;53.258;6.932;2023-10-09T13:43:58;101948.49;;;18.27;73.22
65659;BME280;60181;53.258;6.932;2023-10-09T13:48:17;101951.87;;;18.26;73.13
65659;BME280;60181;53.258;6.932;2023-10-09T13:52:38;101955.42;;;18.25;73.19
65659;BME280;60181;53.258;6.932;2023-10-09T13:57:01;101959.58;;;18.24;73.08
65659;BME280;60181;53.258;6.932;2023-10-09T14:01:18;101962.78;;;18.24;73.06
65659;BME280;60181;53.258;6.932;2023-10-09T14:05:38;101965.43;;;18.24;73.05
65659;BME280;60181;53.258;6.932;2023-10-09T14:09:57;101966.27;;;18.24;73.01
65659;BME280;60181;53.258;6.932;2023-10-09T14:14:17;101966.18;;;18.24;72.99
65659;BME280;60181;53.258;6.932;2023-10-09T14:18:37;101967.67;;;18.24;72.92
65659;BME280;60181;53.258;6.932;2023-10-09T14:23:00;101968.42;;;18.24;72.91
65659;BME280;60181;53.258;6.932;2023-10-09T14:27:17;101969.92;;;18.24;72.90
65659;BME280;60181;53.258;6.932;2023-10-09T14:31:37;101972.41;;;18.24;72.91
65659;BME280;60181;53.258;6.932;2023-10-09T14:35:57;101974.73;;;18.24;72.89
65659;BME280;60181;53.258;6.932;2023-10-09T14:40:17;101975.89;;;18.24;72.86
65659;BME280;60181;53.258;6.932;2023-10-09T14:44:37;101976.62;;;18.24;72.80
65659;BME280;60181;53.258;6.932;2023-10-09T14:48:57;101976.54;;;18.24;72.86
65659;BME280;60181;53.258;6.932;2023-10-09T14:53:17;101977.95;;;18.24;72.79
65659;BME280;60181;53.258;6.932;2023-10-09T14:57:37;101978.03;;;18.24;72.75
65659;BME280;60181;53.258;6.932;2023-10-09T15:01:57;101978.15;;;18.24;72.79
65659;BME280;60181;53.258;6.932;2023-10-09T15:06:17;101979.03;;;18.24;73.14
65659;BME280;60181;53.258;6.932;2023-10-09T15:10:44;101982.19;;;18.24;73.01
65659;BME280;60181;53.258;6.932;2023-10-09T15:14:57;101984.59;;;18.24;72.96
65659;BME280;60181;53.258;6.932;2023-10-09T15:19:17;101987.58;;;18.24;72.91
65659;BME280;60181;53.258;6.932;2023-10-09T15:23:37;101990.31;;;18.24;72.90
65659;BME280;60181;53.258;6.932;2023-10-09T15:27:57;101990.82;;;18.23;72.97
65659;BME280;60181;53.258;6.932;2023-10-09T15:32:17;101990.55;;;18.23;72.90
65659;BME280;60181;53.258;6.932;2023-10-09T15:36:37;101991.80;;;18.22;72.98
65659;BME280;60181;53.258;6.932;2023-10-09T15:40:59;101993.18;;;18.22;73.00
65659;BME280;60181;53.258;6.932;2023-10-09T15:45:18;101993.59;;;18.22;72.98
65659;BME280;60181;53.258;6.932;2023-10-09T15:49:37;101992.03;;;18.21;72.94
65659;BME280;60181;53.258;6.932;2023-10-09T15:53:57;101993.11;;;18.21;72.92
65659;BME280;60181;53.258;6.932;2023-10-09T15:58:17;101994.58;;;18.21;72.94
65659;BME280;60181;53.258;6.932;2023-10-09T16:02:37;101999.64;;;18.20;72.98
65659;BME280;60181;53.258;6.932;2023-10-09T16:06:57;102003.63;;;18.20;72.95
65659;BME280;60181;53.258;6.932;2023-10-09T16:11:18;102007.65;;;18.20;73.02
65659;BME280;60181;53.258;6.932;2023-10-09T16:15:40;102010.82;;;18.19;73.04
65659;BME280;60181;53.258;6.932;2023-10-09T16:19:58;102013.06;;;18.19;73.06
65659;BME280;60181;53.258;6.932;2023-10-09T16:24:17;102014.20;;;18.18;73.01
65659;BME280;60181;53.258;6.932;2023-10-09T16:28:37;102016.44;;;18.18;73.01
65659;BME280;60181;53.258;6.932;2023-10-09T16:32:57;102020.00;;;18.18;73.07
65659;BME280;60181;53.258;6.932;2023-10-09T16:37:17;102024.38;;;18.17;72.99
65659;BME280;60181;53.258;6.932;2023-10-09T16:41:37;102028.28;;;18.17;73.03
65659;BME280;60181;53.258;6.932;2023-10-09T16:45:57;102033.59;;;18.17;73.25
65659;BME280;60181;53.258;6.932;2023-10-09T16:50:17;102038.53;;;18.16;73.21
65659;BME280;60181;53.258;6.932;2023-10-09T16:54:38;102043.34;;;18.16;73.24
65659;BME280;60181;53.258;6.932;2023-10-09T16:58:57;102048.32;;;18.16;73.29
65659;BME280;60181;53.258;6.932;2023-10-09T17:03:17;102052.55;;;18.16;73.15
65659;BME280;60181;53.258;6.932;2023-10-09T17:07:37;102057.45;;;18.16;73.06
65659;BME280;60181;53.258;6.932;2023-10-09T17:11:57;102063.25;;;18.16;73.09
65659;BME280;60181;53.258;6.932;2023-10-09T17:16:18;102071.30;;;18.15;73.08
65659;BME280;60181;53.258;6.932;2023-10-09T17:20:40;102080.42;;;18.15;73.07
65659;BME280;60181;53.258;6.932;2023-10-09T17:24:57;102084.95;;;18.15;73.05
65659;BME280;60181;53.258;6.932;2023-10-09T17:29:18;102087.52;;;18.15;73.06
65659;BME280;60181;53.258;6.932;2023-10-09T17:33:37;102090.92;;;18.15;73.07
65659;BME280;60181;53.258;6.932;2023-10-09T17:37:57;102092.50;;;18.14;73.06
65659;BME280;60181;53.258;6.932;2023-10-09T17:42:17;102094.83;;;18.14;72.99
65659;BME280;60181;53.258;6.932;2023-10-09T17:46:37;102096.88;;;18.14;73.00
65659;BME280;60181;53.258;6.932;2023-10-09T17:50:57;102098.12;;;18.14;73.00
65659;BME280;60181;53.258;6.932;2023-10-09T17:55:17;102099.20;;;18.14;72.96
65659;BME280;60181;53.258;6.932;2023-10-09T17:59:37;102100.28;;;18.13;72.99
65659;BME280;60181;53.258;6.932;2023-10-09T18:03:57;102103.27;;;18.13;72.99
65659;BME280;60181;53.258;6.932;2023-10-09T18:08:17;102105.35;;;18.13;72.95
65659;BME280;60181;53.258;6.932;2023-10-09T18:12:37;102107.89;;;18.13;72.96
65659;BME280;60181;53.258;6.932;2023-10-09T18:16:57;102110.21;;;18.13;72.98
65659;BME280;60181;53.258;6.932;2023-10-09T18:21:17;102110.63;;;18.13;72.98
65659;BME280;60181;53.258;6.932;2023-10-09T18:25:37;102112.03;;;18.12;72.93
65659;BME280;60181;53.258;6.932;2023-10-09T18:29:57;102116.02;;;18.12;72.95
65659;BME280;60181;53.258;6.932;2023-10-09T18:34:17;102117.10;;;18.12;72.93
65659;BME280;60181;53.258;6.932;2023-10-09T18:38:37;102119.31;;;18.12;72.96
65659;BME280;60181;53.258;6.932;2023-10-09T18:42:57;102121.04;;;18.12;72.95
65659;BME280;60181;53.258;6.932;2023-10-09T18:47:17;102122.20;;;18.12;72.96
65659;BME280;60181;53.258;6.932;2023-10-09T18:51:37;102121.13;;;18.11;72.94
65659;BME280;60181;53.258;6.932;2023-10-09T18:55:57;102120.06;;;18.11;72.92
65659;BME280;60181;53.258;6.932;2023-10-09T19:00:17;102119.89;;;18.11;72.94
65659;BME280;60181;53.258;6.932;2023-10-09T19:04:37;102118.70;;;18.11;72.90
65659;BME280;60181;53.258;6.932;2023-10-09T19:08:57;102118.20;;;18.11;72.93
65659;BME280;60181;53.258;6.932;2023-10-09T19:13:17;102119.78;;;18.10;72.95
65659;BME280;60181;53.258;6.932;2023-10-09T19:17:37;102123.35;;;18.10;72.94
65659;BME280;60181;53.258;6.932;2023-10-09T19:21:57;102125.84;;;18.10;72.93
65659;BME280;60181;53.258;6.932;2023-10-09T19:26:17;102127.22;;;18.10;72.90
65659;BME280;60181;53.258;6.932;2023-10-09T19:30:37;102128.22;;;18.10;72.90
65659;BME280;60181;53.258;6.932;2023-10-09T19:34:57;102128.47;;;18.09;72.90
65659;BME280;60181;53.258;6.932;2023-10-09T19:39:17;102129.72;;;18.09;72.91
65659;BME280;60181;53.258;6.932;2023-10-09T19:43:37;102130.38;;;18.09;72.87
65659;BME280;60181;53.258;6.932;2023-10-09T19:47:57;102131.62;;;18.09;72.90
65659;BME280;60181;53.258;6.932;2023-10-09T19:52:17;102134.20;;;18.09;72.90
65659;BME280;60181;53.258;6.932;2023-10-09T19:56:37;102137.09;;;18.09;73.30
65659;BME280;60181;53.258;6.932;2023-10-09T20:00:57;102138.76;;;18.09;73.14
65659;BME280;60181;53.258;6.932;2023-10-09T20:05:17;102139.42;;;18.09;73.15
65659;BME280;60181;53.258;6.932;2023-10-09T20:09:37;102141.99;;;18.09;73.34
65659;BME280;60181;53.258;6.932;2023-10-09T20:13:57;102146.31;;;18.09;73.25
65659;BME280;60181;53.258;6.932;2023-10-09T20:18:17;102148.46;;;18.09;73.33
65659;BME280;60181;53.258;6.932;2023-10-09T20:22:37;102146.55;;;18.09;73.31
65659;BME280;60181;53.258;6.932;2023-10-09T20:26:57;102145.81;;;18.09;73.28
65659;BME280;60181;53.258;6.932;2023-10-09T20:31:17;102143.87;;;18.08;73.48
65659;BME280;60181;53.258;6.932;2023-10-09T20:35:37;102143.63;;;18.08;73.40
65659;BME280;60181;53.258;6.932;2023-10-09T20:39:57;102145.36;;;18.08;73.33
65659;BME280;60181;53.258;6.932;2023-10-09T20:44:17;102147.19;;;18.08;73.31
65659;BME280;60181;53.258;6.932;2023-10-09T20:48:37;102149.78;;;18.09;73.38
65659;BME280;60181;53.258;6.932;2023-10-09T20:52:57;102153.77;;;18.09;73.34
65659;BME280;60181;53.258;6.932;2023-10-09T20:57:17;102155.98;;;18.08;73.49
65659;BME280;60181;53.258;6.932;2023-10-09T21:01:37;102158.65;;;18.09;73.82
65659;BME280;60181;53.258;6.932;2023-10-09T21:06:00;102158.81;;;18.09;73.53
65659;BME280;60181;53.258;6.932;2023-10-09T21:10:17;102157.90;;;18.09;73.57
65659;BME280;60181;53.258;6.932;2023-10-09T21:14:37;102156.42;;;18.09;73.58
65659;BME280;60181;53.258;6.932;2023-10-09T21:18:57;102155.65;;;18.08;73.68
65659;BME280;60181;53.258;6.932;2023-10-09T21:23:17;102157.93;;;18.07;73.71
65659;BME280;60181;53.258;6.932;2023-10-09T21:27:37;102159.74;;;18.06;73.78
65659;BME280;60181;53.258;6.932;2023-10-09T21:31:57;102159.26;;;18.05;73.79
65659;BME280;60181;53.258;6.932;2023-10-09T21:36:17;102159.91;;;18.04;73.88
65659;BME280;60181;53.258;6.932;2023-10-09T21:40:37;102160.21;;;18.04;73.81
65659;BME280;60181;53.258;6.932;2023-10-09T21:44:57;102160.10;;;18.03;73.87
65659;BME280;60181;53.258;6.932;2023-10-09T21:49:17;102161.27;;;18.03;73.87
65659;BME280;60181;53.258;6.932;2023-10-09T21:53:37;102160.99;;;18.02;73.83
65659;BME280;60181;53.258;6.932;2023-10-09T21:57:57;102160.83;;;18.01;73.76
65659;BME280;60181;53.258;6.932;2023-10-09T22:02:17;102159.64;;;18.01;73.79
65659;BME280;60181;53.258;6.932;2023-10-09T22:06:37;102157.83;;;18.00;73.87
65659;BME280;60181;53.258;6.932;2023-10-09T22:10:57;102157.64;;;18.00;73.88
65659;BME280;60181;53.258;6.932;2023-10-09T22:15:17;102157.06;;;17.99;73.96
65659;BME280;60181;53.258;6.932;2023-10-09T22:19:37;102156.72;;;17.99;74.50
65659;BME280;60181;53.258;6.932;2023-10-09T22:23:57;102156.14;;;17.99;74.04
65659;BME280;60181;53.258;6.932;2023-10-09T22:28:17;102156.56;;;17.99;74.14
65659;BME280;60181;53.258;6.932;2023-10-09T22:32:37;102156.72;;;17.99;74.19
65659;BME280;60181;53.258;6.932;2023-10-09T22:36:57;102155.49;;;17.99;74.28
65659;BME280;60181;53.258;6.932;2023-10-09T22:41:17;102154.41;;;17.99;74.13
65659;BME280;60181;53.258;6.932;2023-10-09T22:45:37;102153.91;;;17.99;74.28